createdAt,value
2019-03-16T00:00:31.507Z,7.38
2019-03-16T00:01:31.492Z,7.39
2019-03-16T00:02:31.430Z,7.29
2019-03-16T00:03:31.411Z,7.28
2019-03-16T00:04:31.429Z,7.36
2019-03-16T00:05:31.422Z,7.42
2019-03-16T00:06:32.178Z,7.36
2019-03-16T00:07:33.459Z,7.33
2019-03-16T00:08:32.176Z,7.35
2019-03-16T00:09:31.347Z,7.35
2019-03-16T00:10:32.177Z,7.29
2019-03-16T00:11:32.178Z,7.32
2019-03-16T00:12:31.323Z,7.24
2019-03-16T00:13:31.310Z,7.33
2019-03-16T00:14:31.336Z,7.29
2019-03-16T00:15:31.322Z,7.24
2019-03-16T00:16:32.223Z,7.29
2019-03-16T00:17:31.308Z,7.23
2019-03-16T00:18:31.263Z,7.32
2019-03-16T00:19:31.246Z,7.24
2019-03-16T00:20:32.167Z,7.20
2019-03-16T00:21:31.227Z,7.21
2019-03-16T00:22:31.227Z,7.25
2019-03-16T00:23:31.275Z,7.21
2019-03-16T00:24:31.195Z,7.23
2019-03-16T00:25:32.169Z,7.24
2019-03-16T00:26:31.168Z,7.25
2019-03-16T00:27:31.310Z,7.23
2019-03-16T00:28:31.183Z,7.15
2019-03-16T00:29:31.139Z,7.15
2019-03-16T00:30:31.186Z,7.13
2019-03-16T00:31:31.139Z,7.14
2019-03-16T00:32:31.122Z,7.17
2019-03-16T00:33:31.100Z,7.14
2019-03-16T00:34:31.076Z,7.00
2019-03-16T00:35:31.062Z,7.07
2019-03-16T00:36:31.745Z,7.11
2019-03-16T00:37:31.063Z,7.10
2019-03-16T00:38:31.030Z,7.05
2019-03-16T00:39:31.021Z,7.02
2019-03-16T00:40:31.014Z,7.05
2019-03-16T00:41:30.996Z,7.14
2019-03-16T00:42:31.013Z,7.15
2019-03-16T00:43:30.984Z,7.15
2019-03-16T00:44:30.968Z,7.14
2019-03-16T00:45:30.984Z,7.14
2019-03-16T00:46:30.948Z,7.17
2019-03-16T00:47:31.003Z,7.15
2019-03-16T00:48:31.657Z,7.14
2019-03-16T00:49:30.923Z,7.11
2019-03-16T00:50:30.907Z,7.14
2019-03-16T00:51:30.909Z,7.28
2019-03-16T00:52:30.903Z,7.23
2019-03-16T00:53:30.867Z,7.23
2019-03-16T00:54:30.862Z,7.21
2019-03-16T00:55:30.850Z,7.15
2019-03-16T00:56:30.881Z,7.23
2019-03-16T00:57:30.858Z,7.14
2019-03-16T00:58:30.849Z,7.21
2019-03-16T00:59:30.813Z,7.20
2019-03-16T01:00:30.803Z,7.18
2019-03-16T01:01:30.800Z,7.13
2019-03-16T01:02:32.832Z,7.24
2019-03-16T01:03:31.647Z,7.17
2019-03-16T01:04:30.753Z,7.15
2019-03-16T01:05:30.772Z,7.15
2019-03-16T01:06:30.758Z,7.11
2019-03-16T01:07:30.763Z,7.02
2019-03-16T01:08:30.730Z,7.11
2019-03-16T01:09:30.701Z,6.99
2019-03-16T01:10:30.711Z,7.00
2019-03-16T01:11:31.646Z,7.07
2019-03-16T01:12:30.695Z,7.07
2019-03-16T01:13:30.681Z,7.13
2019-03-16T01:14:30.648Z,7.02
2019-03-16T01:15:30.633Z,7.14
2019-03-16T01:16:30.635Z,7.02
2019-03-16T01:17:30.634Z,7.14
2019-03-16T01:18:31.179Z,7.13
2019-03-16T01:19:30.619Z,7.14
2019-03-16T01:20:30.603Z,7.13
2019-03-16T01:21:30.609Z,7.05
2019-03-16T01:22:30.549Z,7.06
2019-03-16T01:23:30.544Z,7.07
2019-03-16T01:24:30.572Z,7.02
2019-03-16T01:25:30.558Z,7.07
2019-03-16T01:26:30.513Z,7.06
2019-03-16T01:27:30.559Z,7.03
2019-03-16T01:28:30.521Z,7.07
2019-03-16T01:29:30.478Z,7.15
2019-03-16T01:30:30.482Z,7.13
2019-03-16T01:31:30.452Z,7.15
2019-03-16T01:32:40.178Z,7.18
2019-03-16T01:33:31.466Z,7.17
2019-03-16T01:34:30.418Z,7.15
2019-03-16T01:35:30.450Z,7.14
2019-03-16T01:36:30.402Z,7.11
2019-03-16T01:37:30.426Z,7.11
2019-03-16T01:38:30.406Z,7.17
2019-03-16T01:39:31.123Z,7.17
2019-03-16T01:40:30.437Z,7.06
2019-03-16T01:41:30.421Z,7.14
2019-03-16T01:42:30.373Z,7.17
2019-03-16T01:43:30.363Z,7.21
2019-03-16T01:44:31.124Z,7.20
2019-03-16T01:45:30.326Z,7.20
2019-03-16T01:46:30.342Z,7.20
2019-03-16T01:47:30.313Z,7.21
2019-03-16T01:48:30.316Z,7.15
2019-03-16T01:49:30.254Z,7.21
2019-03-16T01:50:30.252Z,7.21
2019-03-16T01:51:30.234Z,7.21
2019-03-16T01:52:30.244Z,7.13
2019-03-16T01:53:30.240Z,7.14
2019-03-16T01:54:30.205Z,7.15
2019-03-16T01:55:30.253Z,7.25
2019-03-16T01:56:31.158Z,7.17
2019-03-16T01:57:30.193Z,7.24
2019-03-16T01:58:30.161Z,7.20
2019-03-16T01:59:30.164Z,7.14
2019-03-16T02:00:30.143Z,7.14
2019-03-16T02:01:30.127Z,7.28
2019-03-16T02:02:30.126Z,7.21
2019-03-16T02:03:30.128Z,7.20
2019-03-16T02:04:30.659Z,7.18
2019-03-16T02:05:30.079Z,7.20
2019-03-16T02:06:30.065Z,7.21
2019-03-16T02:07:30.082Z,7.28
2019-03-16T02:08:30.155Z,7.21
2019-03-16T02:09:30.036Z,7.24
2019-03-16T02:10:30.660Z,7.25
2019-03-16T02:11:30.054Z,7.21
2019-03-16T02:12:29.999Z,7.31
2019-03-16T02:13:30.003Z,7.29
2019-03-16T02:14:30.681Z,7.28
2019-03-16T02:15:29.999Z,7.23
2019-03-16T02:16:29.972Z,7.21
2019-03-16T02:17:29.976Z,7.24
2019-03-16T02:18:30.601Z,7.28
2019-03-16T02:19:29.958Z,7.24
2019-03-16T02:20:30.603Z,7.25
2019-03-16T02:21:29.986Z,7.29
2019-03-16T02:22:29.963Z,7.25
2019-03-16T02:23:29.887Z,7.25
2019-03-16T02:24:29.867Z,7.24
2019-03-16T02:25:29.884Z,7.29
2019-03-16T02:26:29.859Z,7.28
2019-03-16T02:27:29.846Z,7.29
2019-03-16T02:28:29.838Z,7.35
2019-03-16T02:29:29.818Z,7.35
2019-03-16T02:30:29.913Z,7.36
2019-03-16T02:31:29.800Z,7.33
2019-03-16T02:32:30.594Z,7.40
2019-03-16T02:33:29.793Z,7.38
2019-03-16T02:34:29.824Z,7.38
2019-03-16T02:35:29.749Z,7.42
2019-03-16T02:36:30.601Z,7.38
2019-03-16T02:37:29.733Z,7.40
2019-03-16T02:38:29.717Z,7.36
2019-03-16T02:39:29.718Z,7.31
2019-03-16T02:40:29.701Z,7.38
2019-03-16T02:41:29.717Z,7.40
2019-03-16T02:42:30.638Z,7.36
2019-03-16T02:43:29.696Z,7.43
2019-03-16T02:44:29.691Z,7.40
2019-03-16T02:45:29.659Z,7.39
2019-03-16T02:46:30.639Z,7.33
2019-03-16T02:47:29.614Z,7.39
2019-03-16T02:48:29.636Z,7.36
2019-03-16T02:49:29.643Z,7.32
2019-03-16T02:50:29.594Z,7.38
2019-03-16T02:51:29.576Z,7.29
2019-03-16T02:52:30.676Z,7.35
2019-03-16T02:53:29.563Z,7.33
2019-03-16T02:54:29.563Z,7.29
2019-03-16T02:55:29.546Z,7.32
2019-03-16T02:56:29.529Z,7.28
2019-03-16T02:57:29.516Z,7.31
2019-03-16T02:58:29.539Z,7.32
2019-03-16T02:59:29.531Z,7.31
2019-03-16T03:00:30.080Z,7.32
2019-03-16T03:01:29.501Z,7.23
2019-03-16T03:02:29.488Z,7.33
2019-03-16T03:03:30.289Z,7.32
2019-03-16T03:04:29.473Z,7.31
2019-03-16T03:05:29.425Z,7.36
2019-03-16T03:06:29.439Z,7.29
2019-03-16T03:07:29.425Z,7.35
2019-03-16T03:08:29.433Z,7.42
2019-03-16T03:09:29.389Z,7.33
2019-03-16T03:10:29.394Z,7.35
2019-03-16T03:11:29.397Z,7.38
2019-03-16T03:12:30.120Z,7.32
2019-03-16T03:13:30.195Z,7.40
2019-03-16T03:14:29.322Z,7.32
2019-03-16T03:15:29.475Z,7.42
2019-03-16T03:16:29.382Z,7.36
2019-03-16T03:17:29.338Z,7.29
2019-03-16T03:18:30.131Z,7.38
2019-03-16T03:19:29.305Z,7.31
2019-03-16T03:20:29.272Z,7.25
2019-03-16T03:21:29.254Z,7.28
2019-03-16T03:22:29.362Z,7.35
2019-03-16T03:23:29.261Z,7.32
2019-03-16T03:24:29.216Z,7.25
2019-03-16T03:25:29.269Z,7.31
2019-03-16T03:26:29.196Z,7.31
2019-03-16T03:27:29.180Z,7.28
2019-03-16T03:28:30.070Z,7.39
2019-03-16T03:29:29.215Z,7.29
2019-03-16T03:30:29.227Z,7.32
2019-03-16T03:31:29.136Z,7.29
2019-03-16T03:32:29.180Z,7.35
2019-03-16T03:33:56.236Z,7.31
2019-03-16T03:34:30.136Z,7.42
2019-03-16T03:35:29.719Z,7.35
2019-03-16T03:36:29.076Z,7.29
2019-03-16T03:37:29.075Z,7.32
2019-03-16T03:38:29.061Z,7.24
2019-03-16T03:39:29.062Z,7.31
2019-03-16T03:40:29.061Z,7.23
2019-03-16T03:41:29.044Z,7.21
2019-03-16T03:42:29.024Z,7.18
2019-03-16T03:43:29.088Z,7.23
2019-03-16T03:44:29.001Z,7.15
2019-03-16T03:45:28.993Z,7.17
2019-03-16T03:46:32.205Z,7.14
2019-03-16T03:47:29.049Z,7.13
2019-03-16T03:48:28.972Z,7.15
2019-03-16T03:49:28.954Z,7.13
2019-03-16T03:50:28.968Z,7.05
2019-03-16T03:51:28.920Z,7.07
2019-03-16T03:52:28.942Z,7.07
2019-03-16T03:53:28.921Z,7.11
2019-03-16T03:54:28.893Z,7.14
2019-03-16T03:55:28.949Z,7.07
2019-03-16T03:56:28.895Z,7.06
2019-03-16T03:57:28.846Z,7.15
2019-03-16T03:58:28.875Z,7.00
2019-03-16T03:59:28.830Z,7.00
2019-03-16T04:00:28.827Z,7.05
2019-03-16T04:01:28.831Z,7.05
2019-03-16T04:02:28.808Z,6.97
2019-03-16T04:03:29.549Z,6.99
2019-03-16T04:04:28.785Z,6.99
2019-03-16T04:05:28.815Z,6.95
2019-03-16T04:06:28.830Z,7.02
2019-03-16T04:07:28.737Z,6.95
2019-03-16T04:08:28.724Z,7.02
2019-03-16T04:09:28.724Z,7.02
2019-03-16T04:10:28.773Z,6.99
2019-03-16T04:11:28.723Z,6.99
2019-03-16T04:12:28.687Z,6.99
2019-03-16T04:13:29.538Z,6.96
2019-03-16T04:14:28.664Z,6.89
2019-03-16T04:15:28.658Z,6.97
2019-03-16T04:16:28.669Z,6.99
2019-03-16T04:17:28.647Z,7.03
2019-03-16T04:18:28.661Z,7.05
2019-03-16T04:19:28.645Z,7.02
2019-03-16T04:20:28.603Z,7.06
2019-03-16T04:21:28.633Z,7.03
2019-03-16T04:22:28.570Z,7.02
2019-03-16T04:23:28.585Z,7.05
2019-03-16T04:24:28.552Z,7.03
2019-03-16T04:25:28.537Z,7.17
2019-03-16T04:26:28.586Z,6.99
2019-03-16T04:27:29.097Z,7.07
2019-03-16T04:28:28.551Z,7.06
2019-03-16T04:29:28.499Z,7.05
2019-03-16T04:30:29.029Z,7.07
2019-03-16T04:31:28.473Z,7.00
2019-03-16T04:32:28.477Z,6.97
2019-03-16T04:33:28.513Z,7.03
2019-03-16T04:34:29.915Z,7.02
2019-03-16T04:35:28.431Z,7.05
2019-03-16T04:36:28.420Z,6.99
2019-03-16T04:37:28.416Z,7.06
2019-03-16T04:38:28.447Z,7.07
2019-03-16T04:39:28.449Z,7.06
2019-03-16T04:40:28.386Z,7.06
2019-03-16T04:41:28.374Z,7.05
2019-03-16T04:42:28.349Z,7.00
2019-03-16T04:43:28.371Z,7.11
2019-03-16T04:44:28.416Z,7.07
2019-03-16T04:45:29.026Z,7.05
2019-03-16T04:46:31.271Z,7.15
2019-03-16T04:47:28.309Z,7.15
2019-03-16T04:48:28.296Z,7.20
2019-03-16T04:49:29.026Z,7.10
2019-03-16T04:50:29.062Z,7.21
2019-03-16T04:51:28.263Z,7.15
2019-03-16T04:52:28.278Z,7.18
2019-03-16T04:53:28.236Z,7.15
2019-03-16T04:54:28.230Z,7.14
2019-03-16T04:55:28.237Z,7.18
2019-03-16T04:56:28.209Z,7.21
2019-03-16T04:57:28.214Z,7.18
2019-03-16T04:58:28.216Z,7.18
2019-03-16T04:59:28.173Z,7.18
2019-03-16T05:00:28.183Z,7.17
2019-03-16T05:01:28.173Z,7.21
2019-03-16T05:02:28.136Z,7.15
2019-03-16T05:03:28.126Z,7.07
2019-03-16T05:04:41.702Z,7.15
2019-03-16T05:05:30.017Z,7.15
2019-03-16T05:06:28.158Z,7.15
2019-03-16T05:07:28.113Z,7.11
2019-03-16T05:08:28.112Z,7.07
2019-03-16T05:09:28.067Z,7.15
2019-03-16T05:10:28.049Z,7.10
2019-03-16T05:11:28.050Z,7.14
2019-03-16T05:12:28.050Z,7.05
2019-03-16T05:13:28.019Z,7.14
2019-03-16T05:14:28.015Z,7.06
2019-03-16T05:15:28.548Z,7.07
2019-03-16T05:16:27.988Z,7.00
2019-03-16T05:17:28.004Z,7.07
2019-03-16T05:18:27.975Z,7.05
2019-03-16T05:19:28.020Z,7.17
2019-03-16T05:20:27.946Z,7.14
2019-03-16T05:21:27.935Z,7.03
2019-03-16T05:22:27.927Z,6.99
2019-03-16T05:23:27.939Z,7.05
2019-03-16T05:24:27.922Z,7.15
2019-03-16T05:25:28.548Z,7.15
2019-03-16T05:26:27.948Z,6.99
2019-03-16T05:27:27.900Z,7.05
2019-03-16T05:28:27.900Z,7.10
2019-03-16T05:29:27.883Z,7.14
2019-03-16T05:30:27.866Z,7.17
2019-03-16T05:31:27.830Z,7.25
2019-03-16T05:32:27.819Z,7.14
2019-03-16T05:33:27.837Z,7.25
2019-03-16T05:34:27.822Z,7.31
2019-03-16T05:35:27.803Z,7.20
2019-03-16T05:36:27.790Z,7.23
2019-03-16T05:37:27.757Z,7.33
2019-03-16T05:38:27.751Z,7.20
2019-03-16T05:39:27.765Z,7.24
2019-03-16T05:40:27.728Z,7.25
2019-03-16T05:41:27.715Z,7.35
2019-03-16T05:42:28.495Z,7.40
2019-03-16T05:43:27.702Z,7.33
2019-03-16T05:44:27.714Z,7.28
2019-03-16T05:45:27.743Z,7.31
2019-03-16T05:46:27.667Z,7.31
2019-03-16T05:47:27.654Z,7.35
2019-03-16T05:48:27.647Z,7.28
2019-03-16T05:49:27.635Z,7.28
2019-03-16T05:50:27.668Z,7.28
2019-03-16T05:51:27.605Z,7.31
2019-03-16T05:52:27.601Z,7.32
2019-03-16T05:53:27.589Z,7.32
2019-03-16T05:54:27.608Z,7.40
2019-03-16T05:55:27.604Z,7.43
2019-03-16T05:56:27.605Z,7.32
2019-03-16T05:57:27.546Z,7.45
2019-03-16T05:58:27.530Z,7.35
2019-03-16T05:59:28.032Z,7.35
2019-03-16T06:00:27.579Z,7.36
2019-03-16T06:01:27.536Z,7.28
2019-03-16T06:02:27.497Z,7.29
2019-03-16T06:03:27.485Z,7.38
2019-03-16T06:04:27.468Z,7.32
2019-03-16T06:05:27.456Z,7.31
2019-03-16T06:06:27.657Z,7.31
2019-03-16T06:07:27.469Z,7.35
2019-03-16T06:08:27.431Z,7.25
2019-03-16T06:09:27.417Z,7.25
2019-03-16T06:10:27.438Z,7.38
2019-03-16T06:11:27.438Z,7.42
2019-03-16T06:12:27.382Z,7.36
2019-03-16T06:13:27.370Z,7.32
2019-03-16T06:14:27.362Z,7.35
2019-03-16T06:15:27.349Z,7.31
2019-03-16T06:16:27.368Z,7.45
2019-03-16T06:17:27.386Z,7.42
2019-03-16T06:18:27.317Z,7.36
2019-03-16T06:19:27.317Z,7.42
2019-03-16T06:20:27.298Z,7.40
2019-03-16T06:21:27.289Z,7.42
2019-03-16T06:22:27.315Z,7.45
2019-03-16T06:23:27.258Z,7.36
2019-03-16T06:24:28.263Z,7.36
2019-03-16T06:25:27.261Z,7.43
2019-03-16T06:26:27.238Z,7.40
2019-03-16T06:27:27.221Z,7.45
2019-03-16T06:28:27.224Z,7.45
2019-03-16T06:29:27.211Z,7.40
2019-03-16T06:30:27.245Z,7.53
2019-03-16T06:31:27.179Z,7.43
2019-03-16T06:32:27.163Z,7.48
2019-03-16T06:33:27.213Z,7.58
2019-03-16T06:34:27.191Z,7.48
2019-03-16T06:35:29.426Z,7.48
2019-03-16T06:36:27.142Z,7.45
2019-03-16T06:37:27.132Z,7.51
2019-03-16T06:38:27.103Z,7.58
2019-03-16T06:39:27.088Z,7.54
2019-03-16T06:40:27.103Z,7.67
2019-03-16T06:41:27.112Z,7.61
2019-03-16T06:42:27.094Z,7.58
2019-03-16T06:43:27.058Z,7.66
2019-03-16T06:44:27.038Z,7.58
2019-03-16T06:45:27.071Z,7.57
2019-03-16T06:46:27.011Z,7.58
2019-03-16T06:47:27.014Z,7.70
2019-03-16T06:48:26.996Z,7.63
2019-03-16T06:49:26.979Z,7.66
2019-03-16T06:50:27.001Z,7.66
2019-03-16T06:51:26.965Z,7.67
2019-03-16T06:52:26.985Z,7.57
2019-03-16T06:53:26.939Z,7.54
2019-03-16T06:54:26.966Z,7.45
2019-03-16T06:55:26.919Z,7.56
2019-03-16T06:56:26.927Z,7.61
2019-03-16T06:57:26.900Z,7.57
2019-03-16T06:58:26.891Z,7.61
2019-03-16T06:59:26.888Z,7.60
2019-03-16T07:00:26.936Z,7.61
2019-03-16T07:01:26.893Z,7.75
2019-03-16T07:02:26.842Z,7.75
2019-03-16T07:03:26.870Z,7.83
2019-03-16T07:04:26.837Z,7.87
2019-03-16T07:05:37.701Z,8.01
2019-03-16T07:06:27.830Z,7.94
2019-03-16T07:07:27.441Z,7.94
2019-03-16T07:08:26.784Z,7.90
2019-03-16T07:09:26.766Z,7.90
2019-03-16T07:10:26.764Z,7.95
2019-03-16T07:11:26.788Z,7.95
2019-03-16T07:12:26.751Z,7.93
2019-03-16T07:13:26.724Z,8.00
2019-03-16T07:14:26.734Z,8.01
2019-03-16T07:15:26.704Z,8.09
2019-03-16T07:16:26.701Z,8.03
2019-03-16T07:17:26.702Z,8.06
2019-03-16T07:18:26.661Z,8.18
2019-03-16T07:19:26.681Z,8.09
2019-03-16T07:20:26.645Z,8.10
2019-03-16T07:21:26.631Z,8.08
2019-03-16T07:22:26.682Z,8.08
2019-03-16T07:23:26.763Z,8.09
2019-03-16T07:24:26.614Z,8.10
2019-03-16T07:25:26.637Z,8.08
2019-03-16T07:26:26.584Z,8.10
2019-03-16T07:27:26.750Z,8.13
2019-03-16T07:28:26.608Z,8.15
2019-03-16T07:29:26.552Z,8.23
2019-03-16T07:30:26.536Z,8.18
2019-03-16T07:31:26.539Z,8.15
2019-03-16T07:32:26.517Z,8.18
2019-03-16T07:33:26.525Z,8.19
2019-03-16T07:34:26.587Z,8.30
2019-03-16T07:35:26.480Z,8.27
2019-03-16T07:36:26.554Z,8.27
2019-03-16T07:37:26.459Z,8.33
2019-03-16T07:38:26.514Z,8.30
2019-03-16T07:39:26.457Z,8.33
2019-03-16T07:40:26.446Z,8.30
2019-03-16T07:41:26.416Z,8.33
2019-03-16T07:42:26.429Z,8.26
2019-03-16T07:43:26.391Z,8.33
2019-03-16T07:44:26.412Z,8.31
2019-03-16T07:45:26.369Z,8.31
2019-03-16T07:46:26.372Z,8.31
2019-03-16T07:47:26.351Z,8.30
2019-03-16T07:48:26.344Z,8.37
2019-03-16T07:49:26.342Z,8.30
2019-03-16T07:50:26.335Z,8.30
2019-03-16T07:51:26.322Z,8.27
2019-03-16T07:52:26.294Z,8.27
2019-03-16T07:53:26.353Z,8.28
2019-03-16T07:54:26.963Z,8.30
2019-03-16T07:55:26.277Z,8.30
2019-03-16T07:56:26.244Z,8.36
2019-03-16T07:57:39.224Z,8.31
2019-03-16T07:58:27.248Z,8.38
2019-03-16T07:59:26.316Z,8.37
2019-03-16T08:00:26.310Z,8.34
2019-03-16T08:01:26.195Z,8.42
2019-03-16T08:02:26.283Z,8.33
2019-03-16T08:03:26.172Z,8.36
2019-03-16T08:04:26.159Z,8.37
2019-03-16T08:05:26.179Z,8.42
2019-03-16T08:06:26.142Z,8.37
2019-03-16T08:07:26.127Z,8.45
2019-03-16T08:08:26.127Z,8.37
2019-03-16T08:09:26.110Z,8.27
2019-03-16T08:10:26.118Z,8.30
2019-03-16T08:11:26.110Z,8.42
2019-03-16T08:12:26.084Z,8.30
2019-03-16T08:13:26.092Z,8.33
2019-03-16T08:14:26.050Z,8.19
2019-03-16T08:15:28.151Z,8.15
2019-03-16T08:16:26.033Z,8.10
2019-03-16T08:17:26.053Z,8.09
2019-03-16T08:18:26.017Z,8.10
2019-03-16T08:19:25.999Z,8.05
2019-03-16T08:20:25.984Z,8.10
2019-03-16T08:21:25.986Z,8.05
2019-03-16T08:22:25.962Z,7.97
2019-03-16T08:23:25.956Z,8.08
2019-03-16T08:24:25.946Z,8.09
2019-03-16T08:25:25.925Z,8.00
2019-03-16T08:26:25.970Z,8.01
2019-03-16T08:27:25.913Z,8.01
2019-03-16T08:28:25.892Z,7.98
2019-03-16T08:29:25.898Z,8.06
2019-03-16T08:30:25.892Z,8.10
2019-03-16T08:31:25.892Z,8.13
2019-03-16T08:32:25.863Z,8.15
2019-03-16T08:33:25.947Z,8.08
2019-03-16T08:34:25.844Z,8.15
2019-03-16T08:35:25.835Z,8.10
2019-03-16T08:36:25.840Z,8.16
2019-03-16T08:37:25.800Z,8.20
2019-03-16T08:38:25.792Z,8.12
2019-03-16T08:39:25.781Z,8.20
2019-03-16T08:40:25.758Z,8.10
2019-03-16T08:41:25.802Z,8.13
2019-03-16T08:42:25.743Z,8.15
2019-03-16T08:43:25.726Z,8.18
2019-03-16T08:44:25.722Z,8.10
2019-03-16T08:45:25.715Z,8.09
2019-03-16T08:46:25.710Z,8.06
2019-03-16T08:47:25.712Z,8.09
2019-03-16T08:48:25.681Z,8.13
2019-03-16T08:49:25.663Z,8.05
2019-03-16T08:50:25.671Z,8.05
2019-03-16T08:51:25.649Z,8.09
2019-03-16T08:52:25.674Z,8.05
2019-03-16T08:53:25.632Z,8.05
2019-03-16T08:54:25.605Z,8.12
2019-03-16T08:55:25.604Z,8.13
2019-03-16T08:56:25.599Z,8.03
2019-03-16T08:57:25.607Z,8.08
2019-03-16T08:58:25.588Z,8.01
2019-03-16T08:59:25.578Z,7.94
2019-03-16T09:00:25.541Z,7.90
2019-03-16T09:01:25.528Z,7.82
2019-03-16T09:02:25.529Z,7.66
2019-03-16T09:03:25.529Z,7.56
2019-03-16T09:04:25.538Z,7.48
2019-03-16T09:05:25.545Z,7.50
2019-03-16T09:06:25.496Z,7.51
2019-03-16T09:07:25.465Z,7.48
2019-03-16T09:08:25.451Z,7.47
2019-03-16T09:09:25.446Z,7.43
2019-03-16T09:10:25.438Z,7.40
2019-03-16T09:11:25.466Z,7.32
2019-03-16T09:12:25.411Z,7.25
2019-03-16T09:13:25.407Z,7.23
2019-03-16T09:14:25.392Z,7.33
2019-03-16T09:15:25.380Z,7.25
2019-03-16T09:16:25.435Z,7.23
2019-03-16T09:17:25.370Z,7.24
2019-03-16T09:18:25.349Z,7.17
2019-03-16T09:19:25.344Z,7.28
2019-03-16T09:20:25.327Z,7.35
2019-03-16T09:21:25.315Z,7.39
2019-03-16T09:22:25.329Z,7.43
2019-03-16T09:23:25.314Z,7.50
2019-03-16T09:24:25.295Z,7.48
2019-03-16T09:25:25.865Z,7.51
2019-03-16T09:26:25.272Z,7.48
2019-03-16T09:27:31.254Z,7.50
2019-03-16T09:28:26.255Z,7.56
2019-03-16T09:29:25.230Z,7.47
2019-03-16T09:30:25.223Z,7.45
2019-03-16T09:31:25.239Z,7.45
2019-03-16T09:32:25.191Z,7.36
2019-03-16T09:33:25.282Z,7.42
2019-03-16T09:34:25.189Z,7.31
2019-03-16T09:35:25.163Z,7.36
2019-03-16T09:36:25.152Z,7.38
2019-03-16T09:37:25.147Z,7.32
2019-03-16T09:38:25.174Z,7.42
2019-03-16T09:39:25.122Z,7.32
2019-03-16T09:40:25.107Z,7.32
2019-03-16T09:41:25.101Z,7.25
2019-03-16T09:42:28.866Z,7.20
2019-03-16T09:43:25.079Z,7.24
2019-03-16T09:44:25.067Z,7.32
2019-03-16T09:45:25.055Z,7.21
2019-03-16T09:46:25.046Z,7.28
2019-03-16T09:47:25.039Z,7.33
2019-03-16T09:48:25.023Z,7.39
2019-03-16T09:49:25.010Z,7.47
2019-03-16T09:50:25.026Z,7.40
2019-03-16T09:51:24.987Z,7.40
2019-03-16T09:52:25.023Z,7.43
2019-03-16T09:53:24.967Z,7.51
2019-03-16T09:54:24.987Z,7.45
2019-03-16T09:55:25.904Z,7.32
2019-03-16T09:56:24.945Z,7.35
2019-03-16T09:57:24.922Z,7.42
2019-03-16T09:58:31.250Z,7.45
2019-03-16T09:59:25.937Z,7.31
2019-03-16T10:00:24.883Z,7.40
2019-03-16T10:01:24.895Z,7.42
2019-03-16T10:02:24.886Z,7.29
2019-03-16T10:03:24.845Z,7.29
2019-03-16T10:04:24.848Z,7.28
2019-03-16T10:05:24.830Z,7.35
2019-03-16T10:06:24.860Z,7.40
2019-03-16T10:07:24.810Z,7.47
2019-03-16T10:08:24.835Z,7.39
2019-03-16T10:09:24.781Z,7.40
2019-03-16T10:10:24.780Z,7.43
2019-03-16T10:11:24.790Z,7.38
2019-03-16T10:12:24.773Z,7.29
2019-03-16T10:13:24.739Z,7.35
2019-03-16T10:14:24.727Z,7.28
2019-03-16T10:15:24.720Z,7.29
2019-03-16T10:16:24.735Z,7.28
2019-03-16T10:17:24.721Z,7.38
2019-03-16T10:18:24.685Z,7.24
2019-03-16T10:19:24.693Z,7.29
2019-03-16T10:20:24.659Z,7.32
2019-03-16T10:21:24.649Z,7.39
2019-03-16T10:22:25.874Z,7.36
2019-03-16T10:23:24.666Z,7.42
2019-03-16T10:24:24.614Z,7.45
2019-03-16T10:25:24.628Z,7.45
2019-03-16T10:26:24.601Z,7.48
2019-03-16T10:27:24.588Z,7.43
2019-03-16T10:28:24.605Z,7.50
2019-03-16T10:29:24.566Z,7.47
2019-03-16T10:30:24.584Z,7.39
2019-03-16T10:31:24.554Z,7.47
2019-03-16T10:32:24.547Z,7.38
2019-03-16T10:33:24.536Z,7.36
2019-03-16T10:34:24.512Z,7.24
2019-03-16T10:35:24.497Z,7.23
2019-03-16T10:36:24.493Z,7.21
2019-03-16T10:37:24.498Z,7.24
2019-03-16T10:38:24.471Z,7.28
2019-03-16T10:39:24.496Z,7.45
2019-03-16T10:40:24.436Z,7.50
2019-03-16T10:41:24.465Z,7.48
2019-03-16T10:42:24.457Z,7.61
2019-03-16T10:43:24.440Z,7.50
2019-03-16T10:44:24.412Z,7.57
2019-03-16T10:45:24.463Z,7.54
2019-03-16T10:46:24.372Z,7.60
2019-03-16T10:47:24.408Z,7.60
2019-03-16T10:48:24.370Z,7.50
2019-03-16T10:49:24.361Z,7.60
2019-03-16T10:50:24.356Z,7.58
2019-03-16T10:51:24.317Z,7.63
2019-03-16T10:52:24.316Z,7.66
2019-03-16T10:53:24.323Z,7.60
2019-03-16T10:54:24.287Z,7.63
2019-03-16T10:55:24.274Z,7.57
2019-03-16T10:56:24.260Z,7.67
2019-03-16T10:57:24.280Z,7.69
2019-03-16T10:58:24.253Z,7.76
2019-03-16T10:59:24.260Z,7.75
2019-03-16T11:00:24.226Z,7.80
2019-03-16T11:01:24.210Z,7.88
2019-03-16T11:02:24.199Z,7.83
2019-03-16T11:03:24.201Z,7.94
2019-03-16T11:04:24.177Z,7.90
2019-03-16T11:05:24.166Z,7.94
2019-03-16T11:06:24.227Z,7.98
2019-03-16T11:07:24.147Z,8.06
2019-03-16T11:08:24.169Z,8.10
2019-03-16T11:09:26.639Z,8.06
2019-03-16T11:10:24.111Z,8.10
2019-03-16T11:11:24.106Z,8.10
2019-03-16T11:12:24.093Z,8.05
2019-03-16T11:13:24.080Z,8.12
2019-03-16T11:14:24.093Z,8.09
2019-03-16T11:15:24.051Z,8.08
2019-03-16T11:16:24.044Z,8.15
2019-03-16T11:17:24.036Z,8.15
2019-03-16T11:18:24.027Z,8.19
2019-03-16T11:19:24.044Z,8.13
2019-03-16T11:20:23.997Z,8.18
2019-03-16T11:21:23.993Z,8.24
2019-03-16T11:22:23.980Z,8.27
2019-03-16T11:23:23.968Z,8.26
2019-03-16T11:24:24.050Z,8.19
2019-03-16T11:25:24.006Z,8.18
2019-03-16T11:26:23.961Z,8.16
2019-03-16T11:27:23.956Z,8.15
2019-03-16T11:28:23.927Z,8.30
2019-03-16T11:29:23.920Z,8.30
2019-03-16T11:30:23.899Z,8.26
2019-03-16T11:31:23.882Z,8.33
2019-03-16T11:32:23.877Z,8.23
2019-03-16T11:33:23.916Z,8.30
2019-03-16T11:34:23.849Z,8.27
2019-03-16T11:35:23.834Z,8.34
2019-03-16T11:36:23.829Z,8.34
2019-03-16T11:37:23.819Z,8.33
2019-03-16T11:38:23.855Z,8.30
2019-03-16T11:39:23.801Z,8.28
2019-03-16T11:40:23.774Z,8.31
2019-03-16T11:41:23.802Z,8.28
2019-03-16T11:42:23.767Z,8.23
2019-03-16T11:43:23.745Z,8.23
2019-03-16T11:44:23.755Z,8.37
2019-03-16T11:45:23.730Z,8.34
2019-03-16T11:46:23.715Z,8.27
2019-03-16T11:47:23.944Z,8.30
2019-03-16T11:48:23.709Z,8.30
2019-03-16T11:49:23.735Z,8.27
2019-03-16T11:50:23.668Z,8.27
2019-03-16T11:51:23.658Z,8.23
2019-03-16T11:52:23.653Z,8.37
2019-03-16T11:53:23.691Z,8.34
2019-03-16T11:54:23.639Z,8.33
2019-03-16T11:55:23.666Z,8.30
2019-03-16T11:56:23.631Z,8.27
2019-03-16T11:57:23.589Z,8.30
2019-03-16T11:58:23.581Z,8.23
2019-03-16T11:59:23.570Z,8.18
2019-03-16T12:00:23.592Z,8.19
2019-03-16T12:01:23.554Z,8.23
2019-03-16T12:02:23.539Z,8.13
2019-03-16T12:03:23.525Z,8.18
2019-03-16T12:04:23.512Z,8.18
2019-03-16T12:05:23.522Z,8.18
2019-03-16T12:06:23.512Z,8.20
2019-03-16T12:07:23.476Z,8.13
2019-03-16T12:08:23.473Z,8.10
2019-03-16T12:09:23.462Z,8.13
2019-03-16T12:10:23.450Z,8.16
2019-03-16T12:11:23.459Z,8.19
2019-03-16T12:12:23.430Z,8.09
2019-03-16T12:13:23.442Z,8.13
2019-03-16T12:14:23.417Z,8.15
2019-03-16T12:15:23.407Z,8.10
2019-03-16T12:16:23.398Z,8.08
2019-03-16T12:17:23.372Z,8.13
2019-03-16T12:18:23.408Z,8.09
2019-03-16T12:19:23.358Z,8.15
2019-03-16T12:20:23.335Z,8.13
2019-03-16T12:21:23.330Z,8.15
2019-03-16T12:22:23.314Z,8.15
2019-03-16T12:23:23.336Z,8.16
2019-03-16T12:24:23.292Z,8.27
2019-03-16T12:25:23.281Z,8.24
2019-03-16T12:26:23.306Z,8.33
2019-03-16T12:27:23.263Z,8.37
2019-03-16T12:28:23.254Z,8.48
2019-03-16T12:29:33.619Z,8.55
2019-03-16T12:30:24.226Z,8.56
2019-03-16T12:31:23.240Z,8.66
2019-03-16T12:32:23.285Z,8.60
2019-03-16T12:33:23.211Z,8.79
2019-03-16T12:34:23.181Z,8.71
2019-03-16T12:35:23.190Z,8.85
2019-03-16T12:36:23.238Z,8.76
2019-03-16T12:37:23.155Z,8.87
2019-03-16T12:38:23.166Z,8.91
2019-03-16T12:39:23.134Z,8.91
2019-03-16T12:40:23.121Z,8.89
2019-03-16T12:41:23.113Z,8.91
2019-03-16T12:42:23.098Z,8.95
2019-03-16T12:43:23.119Z,8.95
2019-03-16T12:44:23.080Z,8.94
2019-03-16T12:45:23.066Z,9.02
2019-03-16T12:46:23.139Z,9.00
2019-03-16T12:47:23.044Z,9.08
2019-03-16T12:48:23.043Z,9.11
2019-03-16T12:49:23.034Z,9.02
2019-03-16T12:50:23.006Z,8.94
2019-03-16T12:51:23.006Z,8.91
2019-03-16T12:52:22.997Z,9.04
2019-03-16T12:53:22.974Z,9.00
2019-03-16T12:54:22.981Z,9.08
2019-03-16T12:55:22.994Z,9.00
2019-03-16T12:56:22.941Z,9.03
2019-03-16T12:57:22.945Z,8.99
2019-03-16T12:58:22.929Z,9.06
2019-03-16T12:59:22.983Z,9.06
2019-03-16T13:00:22.904Z,9.04
2019-03-16T13:01:22.891Z,9.00
2019-03-16T13:02:22.884Z,9.13
2019-03-16T13:03:22.865Z,9.13
2019-03-16T13:04:22.869Z,9.11
2019-03-16T13:05:22.848Z,9.08
2019-03-16T13:06:22.894Z,9.14
2019-03-16T13:07:22.826Z,9.06
2019-03-16T13:08:22.821Z,9.13
2019-03-16T13:09:22.859Z,9.11
2019-03-16T13:10:22.803Z,9.21
2019-03-16T13:11:22.779Z,9.14
2019-03-16T13:12:22.762Z,9.08
2019-03-16T13:13:22.759Z,9.06
2019-03-16T13:14:22.749Z,9.16
2019-03-16T13:15:22.807Z,9.25
2019-03-16T13:16:22.738Z,9.18
2019-03-16T13:17:22.721Z,9.31
2019-03-16T13:18:22.704Z,9.25